Time;durP1;ratioP1;P1;durP2;ratioP2;P2;SDS_P1;SDS_P2;PMS_P1;PMS_P2;Temp;Humidity;BMP_temperature;BMP_pressure;BME280_temperature;BME280_humidity;BME280_pressure;Samples;Min_cycle;Max_cycle;Signal;HPM_P1;HPM_P2
2023/03/19 00:00:48;;;;;;;12.02;6.87;;;;;;;12.24;37.44;99921.38;4419241;32;34253;-60
2023/03/19 00:03:15;;;;;;;7.07;5.07;;;;;;;12.26;37.49;99922.13;4413725;32;35544;-61
2023/03/19 00:05:51;;;;;;;10.48;5.75;;;;;;;12.30;37.34;99917.37;4419597;32;33341;-62
2023/03/19 00:08:19;;;;;;;5.97;4.05;;;;;;;12.19;37.51;99907.47;4420262;32;34258;-61
2023/03/19 00:10:47;;;;;;;11.40;4.90;;;;;;;12.04;37.73;99908.69;4422268;32;34695;-60
2023/03/19 00:13:15;;;;;;;6.28;4.20;;;;;;;11.93;37.93;99911.34;4414641;32;33984;-60
2023/03/19 00:15:43;;;;;;;10.20;6.25;;;;;;;11.76;38.19;99912.63;4420200;32;34815;-64
2023/03/19 00:18:11;;;;;;;10.00;4.47;;;;;;;11.96;37.89;99909.28;4419359;32;33951;-64
2023/03/19 00:20:38;;;;;;;6.15;4.70;;;;;;;11.43;38.76;99914.22;4419307;32;33154;-62
2023/03/19 00:23:06;;;;;;;9.07;5.30;;;;;;;11.05;40.06;99914.41;4420573;32;33684;-63
2023/03/19 00:25:34;;;;;;;8.32;5.90;;;;;;;10.78;40.30;99910.09;4419870;32;35276;-62
2023/03/19 00:28:01;;;;;;;9.07;4.28;;;;;;;11.21;39.45;99906.94;4419039;32;35325;-64
2023/03/19 00:30:29;;;;;;;8.80;5.90;;;;;;;10.61;40.74;99911.31;4418300;32;33891;-62
2023/03/19 00:32:57;;;;;;;12.23;5.18;;;;;;;10.96;39.84;99910.59;4418376;32;33721;-63
2023/03/19 00:35:25;;;;;;;5.07;4.10;;;;;;;11.05;39.66;99907.22;4419771;32;33648;-63
2023/03/19 00:37:54;;;;;;;9.02;4.82;;;;;;;11.28;39.00;99900.16;4418620;32;33862;-65
2023/03/19 00:40:21;;;;;;;7.68;5.15;;;;;;;10.99;39.78;99905.00;4419150;32;33384;-62
2023/03/19 00:42:49;;;;;;;7.43;4.87;;;;;;;11.30;39.20;99900.00;4415643;32;33551;-62
2023/03/19 00:45:17;;;;;;;5.87;3.47;;;;;;;11.49;38.64;99903.00;4420258;32;34027;-64
2023/03/19 00:47:44;;;;;;;9.57;4.90;;;;;;;11.45;38.73;99889.97;4415060;32;34114;-65
2023/03/19 00:50:12;;;;;;;5.32;4.35;;;;;;;11.41;38.88;99887.53;4409581;32;34156;-64
2023/03/19 00:52:40;;;;;;;5.28;4.35;;;;;;;11.49;38.61;99883.41;4416761;32;35486;-65
2023/03/19 00:55:08;;;;;;;10.25;6.30;;;;;;;11.46;38.58;99886.31;4415272;32;34045;-62
2023/03/19 00:57:35;;;;;;;9.32;5.30;;;;;;;11.58;38.47;99888.06;4410018;32;33118;-63
2023/03/19 01:00:04;;;;;;;9.48;5.65;;;;;;;11.56;38.47;99898.06;4417436;32;34511;-63
2023/03/19 01:02:31;;;;;;;11.68;4.85;;;;;;;11.52;38.58;99886.69;4412278;32;33879;-64
2023/03/19 01:04:59;;;;;;;9.63;5.72;;;;;;;11.66;38.34;99891.03;4416425;32;34888;-64
2023/03/19 01:07:27;;;;;;;9.10;5.30;;;;;;;11.51;38.66;99892.19;4415466;32;34902;-62
2023/03/19 01:09:55;;;;;;;8.90;3.70;;;;;;;11.47;38.74;99891.56;4415768;32;33197;-63
2023/03/19 01:12:23;;;;;;;7.07;4.57;;;;;;;11.54;38.62;99894.63;4414595;32;34807;-63
2023/03/19 01:14:51;;;;;;;8.90;5.12;;;;;;;11.55;38.40;99897.19;4417058;32;34001;-64
2023/03/19 01:17:18;;;;;;;5.55;4.00;;;;;;;11.60;38.28;99897.69;4414033;32;34780;-62
2023/03/19 01:19:46;;;;;;;9.98;4.95;;;;;;;11.16;39.27;99899.22;4417837;32;32910;-62
2023/03/19 01:22:15;;;;;;;11.63;6.35;;;;;;;10.98;39.97;99894.37;4403330;32;33512;-64
2023/03/19 01:24:43;;;;;;;7.55;5.20;;;;;;;11.11;39.89;99892.53;4418417;32;33801;-62
2023/03/19 01:27:11;;;;;;;10.23;5.68;;;;;;;11.09;39.54;99891.78;4406868;32;33784;-63
2023/03/19 01:29:39;;;;;;;4.95;3.90;;;;;;;11.01;39.77;99902.19;4417490;32;33149;-63
2023/03/19 01:32:07;;;;;;;8.05;5.22;;;;;;;10.92;40.07;99891.22;4413266;32;34615;-62
2023/03/19 01:34:36;;;;;;;10.07;5.95;;;;;;;11.07;39.60;99894.56;4418071;32;33556;-61
2023/03/19 01:37:04;;;;;;;13.80;4.78;;;;;;;11.00;40.15;99895.13;4415050;32;34702;-64
2023/03/19 01:39:32;;;;;;;11.50;4.80;;;;;;;10.71;40.22;99893.63;4416305;32;34279;-62
2023/03/19 01:42:01;;;;;;;8.60;6.28;;;;;;;10.18;41.60;99892.97;4402613;32;33749;-59
2023/03/19 01:44:33;;;;;;;10.20;5.95;;;;;;;10.10;41.86;99891.78;4418019;32;35098;-60
2023/03/19 01:47:09;;;;;;;6.60;4.35;;;;;;;10.12;41.75;99888.06;4413844;32;35171;-61
2023/03/19 01:49:39;;;;;;;5.72;4.15;;;;;;;10.26;41.52;99887.09;4403127;32;33476;-58
2023/03/19 01:52:08;;;;;;;10.15;5.07;;;;;;;10.33;41.15;99899.06;4417678;32;34068;-61
2023/03/19 01:54:36;;;;;;;7.40;4.72;;;;;;;10.16;41.65;99897.56;4416368;32;33707;-58
2023/03/19 01:57:10;;;;;;;9.02;6.20;;;;;;;10.66;40.57;99890.44;4400429;32;33738;-60
2023/03/19 01:59:53;;;;;;;8.88;5.35;;;;;;;10.52;40.82;99893.25;4419031;32;33084;-61
2023/03/19 02:02:28;;;;;;;7.65;5.43;;;;;;;10.31;40.94;99898.34;4407550;32;33765;-60
2023/03/19 02:05:00;;;;;;;6.12;4.25;;;;;;;10.33;40.99;99900.88;4416714;32;33509;-59
2023/03/19 02:07:29;;;;;;;8.48;4.30;;;;;;;9.89;41.74;99897.69;4415022;32;33729;-59
2023/03/19 02:09:58;;;;;;;9.30;6.12;;;;;;;9.54;42.67;99889.44;4406073;32;32353;-58
2023/03/19 02:12:26;;;;;;;6.18;4.30;;;;;;;8.75;45.28;99879.56;4405896;32;34958;-60
2023/03/19 02:14:54;;;;;;;8.40;5.10;;;;;;;9.39;43.65;99877.09;4416023;32;33870;-59
2023/03/19 02:17:22;;;;;;;11.10;4.40;;;;;;;8.71;45.46;99883.41;4417939;32;33826;-61
2023/03/19 02:20:00;;;;;;;16.27;7.35;;;;;;;9.46;43.33;99884.59;4417114;32;33674;-61
2023/03/19 02:22:30;;;;;;;4.70;3.45;;;;;;;9.36;43.73;99886.19;4402817;32;33897;-59
2023/03/19 02:25:06;;;;;;;10.55;5.97;;;;;;;9.08;43.56;99882.69;4404546;32;34127;-60
2023/03/19 02:27:34;;;;;;;8.65;5.12;;;;;;;9.24;43.29;99882.50;4406829;32;33385;-59
2023/03/19 02:30:25;;;;;;;7.87;5.22;;;;;;;9.64;42.62;99873.63;4416976;32;32920;-62
2023/03/19 02:32:53;;;;;;;7.28;5.78;;;;;;;9.15;43.59;99876.91;4407087;32;33432;-60
2023/03/19 02:35:20;;;;;;;12.70;4.82;;;;;;;8.88;44.30;99872.47;4417085;32;32827;-60
2023/03/19 02:37:48;;;;;;;13.23;6.30;;;;;;;8.65;44.51;99873.97;4417628;32;34093;-60
2023/03/19 02:40:20;;;;;;;6.50;4.10;;;;;;;7.89;47.11;99869.81;4418389;32;34362;-60
2023/03/19 02:42:47;;;;;;;6.20;4.37;;;;;;;8.44;46.05;99860.19;4418541;32;34554;-60
2023/03/19 02:45:15;;;;;;;5.05;4.53;;;;;;;9.05;44.28;99860.66;4416424;32;34047;-60
2023/03/19 02:47:43;;;;;;;5.47;4.10;;;;;;;8.77;44.89;99858.97;4416241;32;34249;-59
2023/03/19 02:50:11;;;;;;;23.12;5.15;;;;;;;7.75;47.04;99871.63;4417338;32;34290;-59
2023/03/19 02:52:38;;;;;;;6.90;4.50;;;;;;;8.55;45.35;99867.53;4415224;32;33712;-60
2023/03/19 02:55:06;;;;;;;7.68;4.47;;;;;;;8.54;45.46;99866.66;4417490;32;33652;-60
2023/03/19 02:57:34;;;;;;;10.65;6.25;;;;;;;7.41;47.77;99870.97;4419130;32;33883;-60
2023/03/19 03:00:03;;;;;;;6.65;4.70;;;;;;;8.03;46.97;99868.12;4418688;32;33417;-59
2023/03/19 03:02:31;;;;;;;6.85;3.50;;;;;;;8.27;46.38;99866.56;4418860;32;33321;-59
2023/03/19 03:04:59;;;;;;;9.07;4.75;;;;;;;8.26;46.34;99864.87;4417419;32;34643;-59
2023/03/19 03:07:26;;;;;;;9.05;3.62;;;;;;;8.77;45.03;99873.19;4415221;32;33886;-60
2023/03/19 03:09:54;;;;;;;8.88;4.90;;;;;;;8.49;45.69;99860.75;4416761;32;33177;-59
2023/03/19 03:12:21;;;;;;;5.43;3.22;;;;;;;8.46;45.66;99871.63;4417733;32;33410;-63
2023/03/19 03:14:50;;;;;;;5.70;4.50;;;;;;;7.91;46.65;99867.06;4417230;32;34384;-60
2023/03/19 03:17:18;;;;;;;7.70;3.87;;;;;;;8.93;44.71;99866.84;4416466;32;32667;-62
2023/03/19 03:19:46;;;;;;;7.82;4.18;;;;;;;7.48;48.35;99875.03;4418547;32;32439;-59
2023/03/19 03:22:14;;;;;;;9.75;5.87;;;;;;;8.21;46.35;99871.44;4417078;32;33667;-59
2023/03/19 03:24:41;;;;;;;7.70;4.25;;;;;;;8.05;46.88;99879.53;4419270;32;33881;-60
2023/03/19 03:27:09;;;;;;;8.93;4.90;;;;;;;8.57;45.69;99873.59;4416005;32;32477;-59
2023/03/19 03:29:36;;;;;;;8.85;4.43;;;;;;;8.79;44.88;99871.25;4418235;32;32847;-59
2023/03/19 03:32:06;;;;;;;11.45;5.32;;;;;;;8.79;45.15;99873.06;4416786;32;33541;-59
2023/03/19 03:34:34;;;;;;;4.45;2.83;;;;;;;9.21;44.02;99877.41;4416882;32;32862;-59
2023/03/19 03:37:01;;;;;;;6.07;3.30;;;;;;;9.76;42.39;99881.66;4419737;32;33942;-59
2023/03/19 03:39:28;;;;;;;3.47;2.90;;;;;;;9.41;43.21;99884.06;4416525;32;33457;-62
2023/03/19 03:41:56;;;;;;;6.15;1.92;;;;;;;8.44;45.50;99873.53;4415905;32;33802;-60
2023/03/19 03:44:25;;;;;;;6.05;2.83;;;;;;;8.31;45.46;99870.75;4416436;32;35006;-59
2023/03/19 03:46:52;;;;;;;4.62;3.53;;;;;;;9.06;44.07;99865.91;4416598;32;33842;-62
2023/03/19 03:49:20;;;;;;;8.38;3.58;;;;;;;9.55;42.67;99867.94;4416057;32;35088;-60
2023/03/19 03:51:47;;;;;;;4.75;3.55;;;;;;;8.57;45.23;99870.91;4418353;32;33588;-58
2023/03/19 03:54:15;;;;;;;7.07;3.95;;;;;;;8.82;44.54;99876.38;4416933;32;33519;-63
2023/03/19 03:56:43;;;;;;;8.65;5.30;;;;;;;9.18;43.40;99882.94;4416792;32;34594;-62
2023/03/19 03:59:10;;;;;;;5.75;4.35;;;;;;;9.08;43.84;99874.69;4417226;32;31919;-60
2023/03/19 04:01:37;;;;;;;7.75;3.90;;;;;;;9.61;42.61;99881.84;4413727;32;33636;-59
2023/03/19 04:04:05;;;;;;;3.35;2.28;;;;;;;9.79;42.09;99872.53;4418038;32;35987;-62
2023/03/19 04:06:33;;;;;;;7.53;2.85;;;;;;;9.78;42.00;99882.38;4418264;32;33877;-60
2023/03/19 04:09:02;;;;;;;5.50;4.93;;;;;;;9.78;41.89;99881.53;4417465;32;34399;-60
2023/03/19 04:11:30;;;;;;;4.68;2.92;;;;;;;9.42;42.76;99885.75;4413693;32;33414;-63
2023/03/19 04:13:57;;;;;;;6.12;4.47;;;;;;;8.31;45.28;99877.88;4418687;32;33857;-60
2023/03/19 04:16:27;;;;;;;6.53;4.40;;;;;;;9.29;43.12;99869.72;4417762;32;34988;-61
2023/03/19 04:18:55;;;;;;;8.43;5.35;;;;;;;8.35;45.84;99866.09;4416884;32;34330;-59
2023/03/19 04:21:22;;;;;;;7.37;3.72;;;;;;;8.73;44.48;99858.31;4414001;32;33789;-61
2023/03/19 04:23:50;;;;;;;7.10;4.07;;;;;;;8.86;44.33;99853.03;4419140;32;33638;-61
2023/03/19 04:26:17;;;;;;;2.75;2.37;;;;;;;8.38;45.38;99853.47;4417899;32;33653;-61
2023/03/19 04:28:45;;;;;;;6.78;3.67;;;;;;;7.25;47.88;99849.75;4417588;32;34479;-61
2023/03/19 04:31:12;;;;;;;9.38;4.75;;;;;;;7.67;46.90;99854.31;4412702;32;33807;-60
2023/03/19 04:33:42;;;;;;;8.13;4.47;;;;;;;7.08;48.32;99856.06;4418592;32;33079;-61
2023/03/19 04:36:09;;;;;;;7.25;3.97;;;;;;;8.45;45.35;99856.59;4420585;32;34080;-60
2023/03/19 04:38:37;;;;;;;4.93;3.40;;;;;;;8.08;46.17;99850.88;4418080;32;34282;-61
2023/03/19 04:41:05;;;;;;;6.00;3.95;;;;;;;8.16;45.67;99853.94;4418700;32;33741;-60
2023/03/19 04:43:33;;;;;;;5.40;3.47;;;;;;;8.68;44.41;99856.91;4420701;32;35196;-62
2023/03/19 04:46:01;;;;;;;4.70;2.97;;;;;;;8.59;44.72;99869.88;4418065;32;33772;-60
2023/03/19 04:48:29;;;;;;;6.37;3.70;;;;;;;9.29;43.11;99868.84;4420597;32;33637;-60
2023/03/19 04:50:57;;;;;;;5.03;3.03;;;;;;;8.86;44.15;99874.41;4418958;32;34009;-60
2023/03/19 04:53:24;;;;;;;14.23;3.40;;;;;;;8.89;44.12;99871.50;4416910;32;34732;-60
2023/03/19 04:55:52;;;;;;;6.20;3.45;;;;;;;9.27;43.03;99881.44;4410744;32;33896;-61
2023/03/19 04:58:20;;;;;;;6.05;4.07;;;;;;;9.45;42.46;99877.53;4419726;32;33209;-61
2023/03/19 05:00:49;;;;;;;4.80;2.62;;;;;;;9.21;42.93;99861.38;4403076;32;33682;-59
2023/03/19 05:03:17;;;;;;;8.13;5.15;;;;;;;8.44;44.79;99873.53;4420522;32;34967;-61
2023/03/19 05:05:45;;;;;;;2.40;2.08;;;;;;;8.88;43.22;99869.78;4417670;32;35128;-59
2023/03/19 05:08:12;;;;;;;6.07;3.45;;;;;;;8.96;43.86;99883.50;4421680;32;33573;-59
2023/03/19 05:10:40;;;;;;;3.65;2.80;;;;;;;8.83;43.55;99880.78;4419725;32;33142;-60
2023/03/19 05:13:08;;;;;;;2.17;1.98;;;;;;;8.79;43.75;99876.56;4419524;32;33876;-59
2023/03/19 05:15:37;;;;;;;5.37;3.33;;;;;;;9.07;43.14;99880.13;4418899;32;33910;-59
2023/03/19 05:18:05;;;;;;;3.85;2.58;;;;;;;9.55;42.36;99888.47;4420253;32;33142;-60
2023/03/19 05:20:33;;;;;;;7.03;3.05;;;;;;;9.50;42.30;99891.47;4417781;32;33848;-60
2023/03/19 05:23:01;;;;;;;5.12;2.75;;;;;;;9.59;42.25;99883.75;4421094;32;30184;-60
2023/03/19 05:25:30;;;;;;;4.37;3.10;;;;;;;10.00;41.01;99881.75;4417648;32;34711;-60
2023/03/19 05:27:57;;;;;;;3.40;3.10;;;;;;;10.01;41.42;99880.75;4417640;32;33023;-61
2023/03/19 05:30:26;;;;;;;6.22;3.08;;;;;;;10.19;40.62;99886.66;4422046;32;33876;-60
2023/03/19 05:32:57;;;;;;;4.12;2.35;;;;;;;10.36;40.31;99893.50;4420057;32;34647;-59
2023/03/19 05:35:28;;;;;;;8.43;4.07;;;;;;;10.51;40.18;99891.56;4418799;32;33029;-59
2023/03/19 05:37:56;;;;;;;9.93;3.50;;;;;;;10.59;39.96;99893.66;4419292;32;31300;-59
2023/03/19 05:40:24;;;;;;;6.97;3.70;;;;;;;10.34;40.69;99890.09;4422086;32;33923;-59
2023/03/19 05:42:52;;;;;;;4.75;3.03;;;;;;;10.36;40.32;99882.78;4419526;32;32720;-59
2023/03/19 05:45:25;;;;;;;4.68;3.80;;;;;;;10.55;40.00;99889.50;4408071;32;33732;-58
2023/03/19 05:47:53;;;;;;;4.40;3.75;;;;;;;10.54;39.80;99885.13;4413278;32;31560;-59
2023/03/19 05:50:21;;;;;;;4.03;3.03;;;;;;;10.35;40.15;99877.56;4421421;32;33692;-62
2023/03/19 05:52:51;;;;;;;4.87;3.53;;;;;;;10.23;40.78;99884.59;4421418;32;33483;-63
2023/03/19 05:55:19;;;;;;;4.20;2.42;;;;;;;10.57;40.17;99890.25;4421185;32;35031;-59
2023/03/19 05:57:47;;;;;;;3.40;2.50;;;;;;;10.66;39.68;99886.91;4419323;32;34323;-61
2023/03/19 06:00:16;;;;;;;5.80;4.05;;;;;;;10.04;41.33;99893.06;4419028;32;34860;-59
2023/03/19 06:02:46;;;;;;;6.60;3.03;;;;;;;10.54;39.92;99891.34;4418041;32;32658;-61
2023/03/19 06:05:15;;;;;;;2.37;2.17;;;;;;;10.33;40.35;99901.75;4420875;32;33770;-59
2023/03/19 06:07:43;;;;;;;5.57;4.43;;;;;;;10.26;40.84;99897.81;4417899;32;33098;-59
2023/03/19 06:10:12;;;;;;;7.85;4.10;;;;;;;10.38;40.56;99902.28;4419915;32;34688;-59
2023/03/19 06:12:39;;;;;;;15.40;4.18;;;;;;;10.15;40.96;99897.69;4415749;32;33739;-59
2023/03/19 06:15:09;;;;;;;4.07;2.47;;;;;;;10.20;41.09;99909.75;4420383;32;34718;-61
2023/03/19 06:17:38;;;;;;;5.28;3.35;;;;;;;10.26;41.18;99914.69;4421105;32;33302;-62
2023/03/19 06:20:06;;;;;;;4.60;3.20;;;;;;;10.33;40.74;99915.13;4418673;32;34931;-61
2023/03/19 06:22:34;;;;;;;4.93;3.28;;;;;;;10.36;40.59;99914.91;4421016;32;33874;-61
2023/03/19 06:25:02;;;;;;;6.07;3.45;;;;;;;9.99;40.95;99922.81;4420074;32;33733;-59
2023/03/19 06:27:30;;;;;;;3.30;2.15;;;;;;;10.13;41.33;99918.31;4420121;32;34352;-60
2023/03/19 06:29:59;;;;;;;3.10;2.40;;;;;;;10.01;41.74;99923.56;4421754;32;32327;-59
2023/03/19 06:32:29;;;;;;;4.28;3.22;;;;;;;10.49;40.52;99922.91;4418347;32;35264;-60
2023/03/19 06:35:00;;;;;;;4.72;2.65;;;;;;;10.67;40.37;99928.78;4421031;32;33574;-59
2023/03/19 06:37:29;;;;;;;4.12;3.12;;;;;;;10.89;40.02;99922.72;4419572;32;34645;-60
2023/03/19 06:39:56;;;;;;;9.35;2.65;;;;;;;9.96;41.01;99939.06;4421761;32;34673;-61
2023/03/19 06:42:24;;;;;;;4.68;3.35;;;;;;;11.03;39.53;99935.94;4418607;32;33723;-59
2023/03/19 06:44:52;;;;;;;8.50;4.07;;;;;;;10.29;40.34;99936.88;4417372;32;34100;-62
2023/03/19 06:47:20;;;;;;;4.43;2.67;;;;;;;9.38;42.68;99932.34;4420033;32;34162;-62
2023/03/19 06:49:47;;;;;;;4.00;3.03;;;;;;;9.74;41.44;99936.16;4418322;32;34717;-60
2023/03/19 06:52:15;;;;;;;5.70;2.72;;;;;;;9.53;41.82;99933.13;4419242;32;33864;-60
2023/03/19 06:54:42;;;;;;;6.12;3.05;;;;;;;9.26;41.85;99930.50;4420685;32;33969;-62
2023/03/19 06:57:10;;;;;;;6.20;3.83;;;;;;;8.81;43.36;99928.06;4419558;32;33160;-61
2023/03/19 06:59:37;;;;;;;10.13;2.97;;;;;;;9.29;41.74;99932.97;4418940;32;34873;-63
2023/03/19 07:02:05;;;;;;;3.40;2.60;;;;;;;10.03;41.02;99934.16;4417386;32;33774;-61
2023/03/19 07:04:35;;;;;;;7.62;3.05;;;;;;;9.09;42.77;99921.78;4421134;32;32565;-60
2023/03/19 07:07:04;;;;;;;1.62;1.45;;;;;;;9.68;41.52;99933.91;4421307;32;33383;-61
2023/03/19 07:09:32;;;;;;;3.33;2.20;;;;;;;10.29;40.13;99918.13;4416401;32;31874;-60
2023/03/19 07:11:59;;;;;;;2.35;1.58;;;;;;;9.86;41.29;99927.31;4418160;32;33636;-60
2023/03/19 07:14:27;;;;;;;4.50;3.00;;;;;;;9.12;42.50;99922.53;4421319;32;34593;-61
2023/03/19 07:16:54;;;;;;;1.83;1.58;;;;;;;8.53;43.53;99920.09;4418910;32;33416;-60
2023/03/19 07:19:22;;;;;;;3.92;2.75;;;;;;;9.64;41.35;99916.38;4420077;32;33561;-61
2023/03/19 07:21:49;;;;;;;5.00;2.72;;;;;;;9.39;42.15;99933.19;4417241;32;34027;-60
2023/03/19 07:24:17;;;;;;;2.70;1.35;;;;;;;9.56;41.52;99930.25;4421526;32;33913;-60
2023/03/19 07:26:45;;;;;;;2.20;2.00;;;;;;;9.64;41.68;99927.06;4412700;32;33580;-62
2023/03/19 07:29:13;;;;;;;2.40;1.70;;;;;;;10.49;39.73;99928.25;4420305;32;34855;-60
2023/03/19 07:31:41;;;;;;;4.12;2.90;;;;;;;9.93;40.66;99927.75;4419559;32;33970;-62
2023/03/19 07:34:08;;;;;;;3.03;2.58;;;;;;;10.28;39.86;99936.00;4418411;32;32622;-63
2023/03/19 07:36:36;;;;;;;3.50;2.35;;;;;;;10.64;39.72;99932.53;4417817;32;33800;-60
2023/03/19 07:39:03;;;;;;;2.83;2.12;;;;;;;11.30;38.21;99934.84;4413120;32;34025;-64
2023/03/19 07:41:31;;;;;;;4.50;2.45;;;;;;;11.72;37.54;99938.81;4414385;32;34857;-59
2023/03/19 07:43:59;;;;;;;2.58;2.33;;;;;;;11.87;36.93;99931.44;4419770;32;33926;-59
2023/03/19 07:46:27;;;;;;;3.08;2.35;;;;;;;10.72;38.57;99940.87;4420795;32;34621;-61
2023/03/19 07:48:54;;;;;;;7.47;3.92;;;;;;;10.12;39.78;99930.84;4421013;32;35634;-61
2023/03/19 07:51:22;;;;;;;4.80;3.28;;;;;;;10.54;38.80;99927.94;4421593;32;34901;-61
2023/03/19 07:53:49;;;;;;;3.90;2.90;;;;;;;10.39;39.72;99925.37;4419835;32;33844;-60
2023/03/19 07:56:17;;;;;;;3.50;2.00;;;;;;;11.98;36.67;99915.38;4418703;32;33451;-61
2023/03/19 07:58:45;;;;;;;3.80;2.25;;;;;;;13.82;33.20;99918.31;4419874;32;33683;-60
2023/03/19 08:01:12;;;;;;;8.50;3.42;;;;;;;13.43;32.92;99913.50;4420281;32;35032;-60
2023/03/19 08:03:40;;;;;;;4.43;2.30;;;;;;;14.99;30.71;99915.19;4420646;32;34891;-61
2023/03/19 08:06:07;;;;;;;4.93;2.42;;;;;;;16.02;28.83;99908.41;4420312;32;33031;-60
2023/03/19 08:08:35;;;;;;;4.10;2.78;;;;;;;17.30;27.06;99897.69;4418736;32;33899;-60
2023/03/19 08:11:03;;;;;;;6.37;3.42;;;;;;;16.41;28.29;99911.84;4419506;32;34158;-61
2023/03/19 08:13:30;;;;;;;17.10;4.55;;;;;;;17.61;26.67;99913.53;4420798;32;33664;-61
2023/03/19 08:15:58;;;;;;;5.45;3.87;;;;;;;19.02;25.04;99907.81;4422071;32;33436;-61
2023/03/19 08:18:26;;;;;;;7.00;4.43;;;;;;;17.48;26.69;99899.53;4421129;32;34750;-61
2023/03/19 08:20:53;;;;;;;7.90;5.07;;;;;;;18.51;25.34;99900.63;4419638;32;35000;-62
2023/03/19 08:23:20;;;;;;;7.22;3.95;;;;;;;17.68;26.12;99896.50;4420036;32;34130;-63
2023/03/19 08:25:50;;;;;;;7.18;3.92;;;;;;;17.69;26.09;99895.50;4422524;32;33557;-60
2023/03/19 08:28:18;;;;;;;7.18;4.20;;;;;;;17.29;26.44;99898.69;4419546;32;32123;-61
2023/03/19 08:30:46;;;;;;;11.85;3.85;;;;;;;15.31;29.19;99911.38;4421085;32;34339;-61
2023/03/19 08:33:14;;;;;;;6.18;3.25;;;;;;;13.55;32.19;99910.75;4421162;32;34063;-61
2023/03/19 08:35:42;;;;;;;6.45;3.70;;;;;;;13.92;31.46;99917.41;4419962;32;34517;-60
2023/03/19 08:38:09;;;;;;;4.32;2.58;;;;;;;13.17;32.73;99912.97;4419938;32;34559;-61
2023/03/19 08:40:37;;;;;;;5.57;3.17;;;;;;;13.56;32.43;99910.63;4420085;32;34085;-62
2023/03/19 08:43:05;;;;;;;11.55;3.37;;;;;;;12.77;33.66;99905.47;4419647;32;34430;-62
2023/03/19 08:45:33;;;;;;;4.70;2.17;;;;;;;12.10;34.60;99916.22;4421721;32;33543;-61
2023/03/19 08:48:00;;;;;;;8.38;3.15;;;;;;;13.06;33.43;99907.59;4418638;32;32380;-63
2023/03/19 08:50:28;;;;;;;4.40;2.42;;;;;;;12.29;35.15;99907.59;4421515;32;33725;-60
2023/03/19 08:52:56;;;;;;;7.25;3.40;;;;;;;12.04;35.15;99901.50;4420709;32;33842;-60
2023/03/19 08:55:24;;;;;;;4.07;2.62;;;;;;;12.82;33.52;99908.66;4420110;32;34535;-61
2023/03/19 08:57:51;;;;;;;6.22;3.40;;;;;;;13.78;32.29;99898.06;4418719;32;33528;-61
2023/03/19 09:00:19;;;;;;;3.83;2.75;;;;;;;12.59;34.68;99894.41;4420259;32;34035;-63
2023/03/19 09:02:46;;;;;;;4.35;2.58;;;;;;;12.67;34.27;99898.28;4419774;32;33459;-60
2023/03/19 09:05:15;;;;;;;4.43;2.28;;;;;;;13.12;33.66;99888.28;4418972;32;33099;-63
2023/03/19 09:07:42;;;;;;;6.15;2.90;;;;;;;13.12;33.04;99896.34;4420648;32;33795;-61
2023/03/19 09:10:10;;;;;;;3.65;2.67;;;;;;;13.12;33.35;99890.12;4421183;32;35143;-60
2023/03/19 09:12:37;;;;;;;5.30;3.03;;;;;;;13.95;32.33;99887.53;4420159;32;34465;-61
2023/03/19 09:15:05;;;;;;;2.70;2.15;;;;;;;14.09;32.03;99885.47;4419608;32;33750;-61
2023/03/19 09:17:33;;;;;;;3.47;2.70;;;;;;;14.21;31.47;99893.34;4419394;32;33393;-62
2023/03/19 09:20:00;;;;;;;4.70;2.67;;;;;;;14.65;30.95;99885.88;4419319;32;34031;-61
2023/03/19 09:22:28;;;;;;;3.47;2.62;;;;;;;12.91;33.04;99890.09;4420782;32;34617;-61
2023/03/19 09:24:56;;;;;;;7.65;3.55;;;;;;;14.14;31.36;99880.56;4416828;32;33420;-60
2023/03/19 09:27:23;;;;;;;5.20;3.80;;;;;;;14.05;31.47;99884.91;4418985;32;33918;-61
2023/03/19 09:29:51;;;;;;;5.15;2.95;;;;;;;14.64;30.83;99877.97;4415759;32;33753;-61
2023/03/19 09:32:19;;;;;;;4.10;2.65;;;;;;;14.88;30.82;99874.88;4420232;32;35352;-61
2023/03/19 09:34:46;;;;;;;2.97;1.83;;;;;;;15.08;30.43;99863.13;4418756;32;34480;-61
2023/03/19 09:37:14;;;;;;;4.72;3.10;;;;;;;15.43;29.83;99869.81;4421211;32;33749;-62
2023/03/19 09:39:42;;;;;;;4.25;2.72;;;;;;;14.35;30.75;99877.81;4418769;32;34520;-62
2023/03/19 09:42:24;;;;;;;7.53;3.92;;;;;;;13.98;31.52;99881.88;4420248;32;32579;-63
2023/03/19 09:44:52;;;;;;;6.07;3.42;;;;;;;13.55;32.50;99865.91;4404108;32;33121;-61
2023/03/19 09:47:19;;;;;;;5.57;2.97;;;;;;;13.80;31.79;99871.84;4416206;32;34439;-61
2023/03/19 09:49:47;;;;;;;5.30;3.35;;;;;;;13.91;30.89;99858.34;4419990;32;35238;-60
2023/03/19 09:52:42;;;;;;;5.45;2.72;;;;;;;13.94;31.82;99869.69;4407536;32;32599;-62
2023/03/19 09:55:23;;;;;;;6.85;3.42;;;;;;;14.57;31.22;99866.84;4417499;32;33339;-60
2023/03/19 09:57:54;;;;;;;10.25;3.95;;;;;;;13.38;32.13;99872.69;4419266;32;35050;-63
2023/03/19 10:00:22;;;;;;;5.22;3.08;;;;;;;14.46;31.09;99880.41;4415245;32;35044;-61
2023/03/19 10:02:53;;;;;;;3.97;3.00;;;;;;;13.91;31.83;99871.81;4405968;32;33974;-60
2023/03/19 10:05:45;;;;;;;6.07;3.15;;;;;;;15.34;29.28;99860.75;4418547;32;33571;-61
2023/03/19 10:08:45;;;;;;;5.37;2.92;;;;;;;15.28;29.38;99863.13;4416297;32;33823;-61
2023/03/19 10:11:28;;;;;;;7.93;3.55;;;;;;;14.44;30.69;99860.84;4349828;32;33683;-62
2023/03/19 10:14:17;;;;;;;3.40;2.15;;;;;;;14.70;30.23;99854.97;4417693;32;32684;-61
2023/03/19 10:16:46;;;;;;;3.22;2.17;;;;;;;15.70;29.09;99854.78;4413811;32;33343;-61
2023/03/19 10:19:17;;;;;;;2.85;1.85;;;;;;;15.18;29.69;99856.87;4406674;32;33796;-60
2023/03/19 10:21:50;;;;;;;4.62;2.97;;;;;;;15.29;29.50;99852.22;4412868;32;33248;-61
2023/03/19 10:24:32;;;;;;;7.20;3.80;;;;;;;15.83;29.25;99845.38;4402663;32;32546;-61
2023/03/19 10:27:01;;;;;;;4.28;2.70;;;;;;;15.98;28.14;99852.97;4412110;32;33174;-60
2023/03/19 10:29:29;;;;;;;6.18;3.47;;;;;;;15.25;29.20;99845.41;4405650;32;33840;-61
2023/03/19 10:32:10;;;;;;;5.50;3.60;;;;;;;14.84;30.47;99838.44;4422151;32;33955;-61
2023/03/19 10:34:44;;;;;;;7.43;3.10;;;;;;;15.85;28.77;99853.31;4417376;32;33761;-60
2023/03/19 10:37:12;;;;;;;4.12;1.95;;;;;;;15.70;29.19;99841.28;4419442;32;32279;-62
2023/03/19 10:39:42;;;;;;;11.82;3.90;;;;;;;15.52;29.44;99833.03;4411994;32;34031;-60
2023/03/19 10:42:20;;;;;;;6.28;3.42;;;;;;;15.23;29.20;99833.91;4414659;32;33266;-62
2023/03/19 10:45:09;;;;;;;3.78;2.30;;;;;;;15.80;29.42;99815.97;4416306;32;33659;-61
2023/03/19 10:47:38;;;;;;;5.72;2.45;;;;;;;16.40;28.47;99820.97;4400459;32;33385;-60
2023/03/19 10:50:10;;;;;;;10.73;3.95;;;;;;;16.41;27.69;99822.69;4413966;32;33836;-61
2023/03/19 10:52:37;;;;;;;4.22;2.78;;;;;;;15.67;28.87;99815.44;4415579;32;34988;-60
2023/03/19 10:55:16;;;;;;;9.05;4.75;;;;;;;16.01;28.87;99801.41;4403510;32;34631;-61
2023/03/19 10:57:49;;;;;;;7.12;4.22;;;;;;;15.56;29.21;99811.00;4415273;32;33411;-61
2023/03/19 11:00:23;;;;;;;5.68;3.80;;;;;;;16.81;27.64;99815.22;4418004;32;33707;-60
2023/03/19 11:02:53;;;;;;;5.60;2.62;;;;;;;16.29;28.05;99807.69;4420561;32;33904;-63
2023/03/19 11:05:20;;;;;;;6.70;3.47;;;;;;;16.53;27.79;99802.56;4419385;32;34491;-62
2023/03/19 11:07:50;;;;;;;6.28;2.95;;;;;;;15.84;27.87;99792.22;4421783;32;31988;-60
2023/03/19 11:10:19;;;;;;;6.30;3.25;;;;;;;15.65;28.21;99781.47;4405789;32;36481;-61
2023/03/19 11:12:51;;;;;;;5.62;2.78;;;;;;;15.42;28.61;99789.91;4406128;32;34036;-60
2023/03/19 11:15:21;;;;;;;8.35;3.28;;;;;;;16.68;27.37;99783.12;4398601;32;34561;-60
2023/03/19 11:17:56;;;;;;;4.30;2.50;;;;;;;16.62;27.52;99783.72;4421635;32;32106;-63
2023/03/19 11:20:32;;;;;;;8.10;3.75;;;;;;;16.84;27.10;99772.50;4419508;32;33256;-60
2023/03/19 11:23:02;;;;;;;5.35;3.03;;;;;;;15.92;27.97;99770.78;4418264;32;33952;-62
2023/03/19 11:25:35;;;;;;;6.05;3.75;;;;;;;16.08;27.99;99767.41;4414190;32;33868;-60
2023/03/19 11:28:07;;;;;;;5.47;2.62;;;;;;;15.72;28.62;99763.72;4406208;32;34458;-61
2023/03/19 11:31:07;;;;;;;8.02;4.35;;;;;;;16.33;27.93;99763.16;4419223;32;33945;-60
2023/03/19 11:33:43;;;;;;;4.45;2.65;;;;;;;16.10;27.91;99759.16;4401417;32;33935;-61
2023/03/19 11:36:29;;;;;;;7.57;3.80;;;;;;;15.52;28.71;99762.91;4420632;32;34279;-60
2023/03/19 11:39:06;;;;;;;8.88;4.00;;;;;;;16.16;27.94;99761.28;4419487;32;33246;-61
2023/03/19 11:42:22;;;;;;;7.70;4.32;;;;;;;15.66;28.90;99756.19;4413360;32;33644;-60
2023/03/19 11:44:56;;;;;;;3.97;2.87;;;;;;;15.18;28.25;99766.06;4405255;32;33933;-61
2023/03/19 11:47:47;;;;;;;7.63;3.37;;;;;;;16.31;27.74;99757.06;4420881;32;35179;-61